Time;durP1;ratioP1;P1;durP2;ratioP2;P2;SDS_P1;SDS_P2;PMS_P1;PMS_P2;Temp;Humidity;BMP_temperature;BMP_pressure;BME280_temperature;BME280_humidity;BME280_pressure;Samples;Min_cycle;Max_cycle;Signal;HPM_P1;HPM_P2
2020/12/06 00:01:05;;;;;;;25.90;16.33;;;6.20;99.90;;;5.92;69.81;99969.91;5075950;28;20050;-92
2020/12/06 00:03:35;;;;;;;17.60;14.93;;;6.20;99.90;;;6.22;69.84;100030.25;5072880;28;20048;-85
2020/12/06 00:06:04;;;;;;;18.55;15.00;;;6.20;99.90;;;6.17;69.91;100018.91;5082493;28;20050;-84
2020/12/06 00:08:31;;;;;;;20.90;14.83;;;6.20;99.90;;;6.10;70.09;100023.25;5072708;28;20132;-85
2020/12/06 00:10:59;;;;;;;19.23;15.20;;;6.10;99.90;;;5.94;70.25;99997.03;5071667;28;20049;-80
2020/12/06 00:13:26;;;;;;;18.70;14.87;;;6.10;99.90;;;6.12;70.25;100018.88;5073154;28;20143;-84
2020/12/06 00:15:57;;;;;;;17.70;15.80;;;6.10;99.90;;;6.15;70.28;100025.91;5075892;28;20138;-84
2020/12/06 00:18:25;;;;;;;19.37;15.50;;;6.10;99.90;;;6.14;70.12;100025.00;5076334;28;20058;-85
2020/12/06 00:20:53;;;;;;;20.63;16.10;;;6.10;99.90;;;6.11;70.01;100008.41;5075487;28;20044;-83
2020/12/06 00:23:20;;;;;;;21.43;16.37;;;6.10;99.90;;;6.10;69.60;100001.38;5075548;28;20067;-82
2020/12/06 00:25:51;;;;;;;18.53;15.50;;;6.10;99.90;;;6.11;69.76;100009.28;5076012;28;20044;-87
2020/12/06 00:28:18;;;;;;;18.27;15.98;;;6.10;99.90;;;6.10;69.87;100019.75;5076751;28;20048;-80
2020/12/06 00:30:46;;;;;;;18.43;14.83;;;6.10;99.90;;;6.08;69.74;100016.25;5079191;28;20091;-86
2020/12/06 00:33:14;;;;;;;17.00;15.20;;;6.10;99.90;;;6.07;69.55;100012.78;5077004;28;20040;-77
2020/12/06 00:35:41;;;;;;;19.90;15.43;;;6.00;99.90;;;5.92;69.74;99999.63;5075256;28;20526;-78
2020/12/06 00:38:09;;;;;;;20.33;15.00;;;6.00;99.90;;;5.23;69.22;99889.41;5075575;28;20045;-78
2020/12/06 00:40:36;;;;;;;19.33;16.33;;;6.00;99.90;;;5.95;69.38;100018.03;5075112;28;20109;-78
2020/12/06 00:43:04;;;;;;;18.33;15.40;;;5.90;99.90;;;5.79;69.62;100016.22;5075320;28;20051;-78
2020/12/06 00:45:31;;;;;;;19.57;15.53;;;5.80;99.90;;;5.77;70.01;100007.47;5075675;28;20051;-78
2020/12/06 00:47:59;;;;;;;21.57;16.50;;;5.70;99.90;;;5.75;70.14;100003.97;5090983;28;20094;-79
2020/12/06 00:50:28;;;;;;;19.63;15.90;;;5.70;99.90;;;5.58;70.50;100000.44;5074134;28;20052;-78
2020/12/06 00:52:56;;;;;;;19.30;15.87;;;5.70;99.90;;;5.72;70.54;100009.22;5073963;28;20087;-77
2020/12/06 00:55:24;;;;;;;21.63;16.13;;;5.70;99.90;;;5.61;70.80;100000.47;5073875;28;20037;-78
2020/12/06 00:57:53;;;;;;;19.10;14.93;;;5.70;99.90;;;5.72;70.54;100014.47;5074002;28;20074;-78
2020/12/06 01:00:20;;;;;;;18.70;16.13;;;5.70;99.90;;;5.49;70.67;99992.59;5074743;28;20440;-78
2020/12/06 01:02:47;;;;;;;19.90;16.00;;;5.60;99.90;;;5.65;70.93;100012.72;5074636;28;20044;-77
2020/12/06 01:05:15;;;;;;;19.97;16.43;;;5.60;99.90;;;5.43;70.76;99997.81;5075029;28;20149;-78
2020/12/06 01:07:43;;;;;;;18.43;16.17;;;5.60;99.90;;;5.41;70.98;99991.69;5075314;28;20440;-78
2020/12/06 01:10:12;;;;;;;19.30;15.43;;;5.60;99.90;;;5.58;70.91;100021.44;5074906;28;20446;-77
2020/12/06 01:12:40;;;;;;;20.70;16.20;;;5.50;99.90;;;5.57;70.99;100022.31;5073616;28;20498;-77
2020/12/06 01:15:09;;;;;;;18.17;16.27;;;5.50;99.90;;;5.28;71.34;99992.53;5075023;28;20076;-77
2020/12/06 01:17:37;;;;;;;22.40;16.23;;;5.40;99.90;;;5.34;70.94;100014.38;5074763;28;20055;-77
2020/12/06 01:20:06;;;;;;;24.60;16.73;;;5.40;99.90;;;5.17;71.39;99997.72;5074813;28;20127;-77
2020/12/06 01:22:34;;;;;;;25.17;16.53;;;5.40;99.90;;;5.18;71.44;100022.22;5074393;28;20044;-77
2020/12/06 01:25:03;;;;;;;20.10;16.10;;;5.30;99.90;;;5.17;71.58;100012.56;5074171;28;20116;-77
2020/12/06 01:27:31;;;;;;;20.60;15.93;;;5.20;99.90;;;5.21;71.47;100014.34;5074487;28;20109;-77
2020/12/06 01:29:58;;;;;;;20.20;16.67;;;5.20;99.90;;;5.23;71.52;100012.59;5074108;28;20086;-77
2020/12/06 01:32:25;;;;;;;21.20;15.97;;;5.20;99.90;;;4.23;71.41;99843.75;5074135;28;20036;-77
2020/12/06 01:34:53;;;;;;;23.43;16.70;;;5.20;99.90;;;5.26;71.53;100018.75;5074331;28;20068;-77
2020/12/06 01:37:20;;;;;;;20.27;16.73;;;5.30;99.90;;;4.39;71.53;99864.75;5073947;28;20041;-78
2020/12/06 01:39:47;;;;;;;19.20;15.63;;;5.20;99.90;;;5.08;71.56;99986.34;5074027;28;20048;-77
2020/12/06 01:42:16;;;;;;;22.23;16.97;;;5.30;99.90;;;5.31;71.65;100021.38;5073856;28;20044;-78
2020/12/06 01:44:43;;;;;;;18.47;15.90;;;5.30;99.90;;;5.33;71.41;100017.00;5089745;28;20448;-78
2020/12/06 01:47:12;;;;;;;18.93;15.70;;;5.30;99.90;;;5.19;71.08;99989.88;5073790;28;20048;-78
2020/12/06 01:49:40;;;;;;;22.70;16.17;;;5.30;99.90;;;5.37;70.84;100026.63;5072732;28;20505;-78
2020/12/06 01:52:08;;;;;;;19.40;16.53;;;5.30;99.90;;;5.31;70.67;100022.25;5073726;28;20048;-77
2020/12/06 01:54:37;;;;;;;17.10;15.30;;;5.30;99.90;;;4.90;70.94;99953.09;5073651;28;20041;-78
2020/12/06 01:57:05;;;;;;;19.80;17.43;;;5.30;99.90;;;5.17;71.17;100017.81;5073633;28;20046;-77
2020/12/06 01:59:33;;;;;;;22.30;16.53;;;5.20;99.90;;;5.12;71.35;99993.34;5073791;28;20433;-78
2020/12/06 02:02:04;;;;;;;17.77;15.50;;;5.20;99.90;;;4.75;71.04;99923.34;5072499;28;20047;-79
2020/12/06 02:04:32;;;;;;;19.17;16.03;;;5.20;99.90;;;4.95;70.90;99958.38;5073774;28;20452;-77
2020/12/06 02:07:01;;;;;;;18.77;15.37;;;5.20;99.90;;;4.56;71.28;99889.28;5073964;28;20051;-77
2020/12/06 02:09:31;;;;;;;20.30;15.90;;;5.20;99.90;;;5.27;70.91;100007.38;5073396;28;20119;-78
2020/12/06 02:11:59;;;;;;;18.05;15.82;;;5.20;99.90;;;5.12;71.17;99983.75;5073246;28;20041;-78
2020/12/06 02:14:27;;;;;;;19.60;15.50;;;5.20;99.90;;;4.86;70.94;99947.88;5073540;28;20045;-78
2020/12/06 02:16:56;;;;;;;21.03;16.00;;;5.20;99.90;;;5.30;70.96;100024.88;5073541;28;20067;-77
2020/12/06 02:19:23;;;;;;;18.47;15.60;;;5.20;99.90;;;5.30;70.58;100037.97;5073222;28;20072;-78
2020/12/06 02:21:52;;;;;;;18.07;15.03;;;5.20;99.90;;;5.24;70.59;100040.59;5073050;28;20052;-77
2020/12/06 02:24:19;;;;;;;17.13;15.33;;;5.20;99.90;;;4.96;70.69;100007.25;5073133;28;20065;-77
2020/12/06 02:26:49;;;;;;;17.07;15.23;;;5.10;99.90;;;5.13;71.01;100055.41;5073143;28;20464;-78
2020/12/06 02:29:17;;;;;;;18.70;14.65;;;5.10;99.90;;;5.06;70.97;100061.47;5073578;28;20127;-78
2020/12/06 02:31:45;;;;;;;16.07;14.37;;;5.10;99.90;;;4.99;71.40;100063.19;5073333;28;20099;-77
2020/12/06 02:34:12;;;;;;;19.73;16.53;;;4.90;99.90;;;4.66;71.82;100069.97;5072955;28;20398;-77
2020/12/06 02:36:40;;;;;;;18.73;16.80;;;4.80;99.90;;;4.16;72.83;100064.38;5088332;28;20474;-78
2020/12/06 02:39:11;;;;;;;21.90;17.33;;;4.50;99.90;;;4.19;73.79;100072.25;5072831;28;20044;-78
2020/12/06 02:41:40;;;;;;;20.40;17.27;;;4.30;99.90;;;4.19;73.88;100072.25;5071879;28;20049;-78
2020/12/06 02:44:13;;;;;;;23.03;18.00;;;4.30;99.90;;;4.11;74.47;100066.06;5072893;28;20135;-78
2020/12/06 02:46:41;;;;;;;22.63;18.00;;;4.20;99.90;;;1.54;74.26;99624.06;5073158;28;20490;-78
2020/12/06 02:49:09;;;;;;;22.63;18.50;;;4.20;99.90;;;4.01;75.10;100065.13;5073195;28;20045;-78
2020/12/06 02:51:38;;;;;;;20.00;17.10;;;4.10;99.90;;;4.10;75.21;100065.22;5072757;28;20406;-78
2020/12/06 02:54:06;;;;;;;20.93;17.70;;;4.10;99.90;;;4.23;74.95;100059.22;5072708;28;20067;-78
2020/12/06 02:56:34;;;;;;;22.70;18.17;;;4.20;99.90;;;4.34;75.32;100056.66;5072789;28;20043;-78
2020/12/06 02:59:02;;;;;;;21.53;18.73;;;4.30;99.90;;;4.37;75.03;100049.72;5072976;28;20135;-78
2020/12/06 03:01:30;;;;;;;21.23;17.37;;;4.40;99.90;;;4.38;74.61;100041.00;5072945;28;20049;-77
2020/12/06 03:03:58;;;;;;;22.67;18.03;;;4.40;99.90;;;3.40;74.07;99908.59;5071860;28;20048;-78
2020/12/06 03:06:26;;;;;;;19.60;17.50;;;4.50;99.90;;;4.50;73.98;100021.88;5072906;28;20043;-77
2020/12/06 03:08:54;;;;;;;20.93;17.67;;;4.60;99.90;;;4.62;73.81;100034.16;5072884;28;20119;-77
2020/12/06 03:11:25;;;;;;;20.73;17.97;;;4.60;99.90;;;4.66;73.44;100041.19;5072780;28;20064;-77
2020/12/06 03:13:53;;;;;;;20.37;18.07;;;4.60;99.90;;;4.69;73.32;100028.09;5072844;28;20048;-78
2020/12/06 03:16:21;;;;;;;20.50;16.47;;;4.70;99.90;;;4.63;73.43;100023.69;5072404;28;20048;-78
2020/12/06 03:18:50;;;;;;;19.30;17.10;;;4.70;99.90;;;4.73;73.01;100040.31;5071285;28;20052;-77
2020/12/06 03:21:17;;;;;;;22.43;18.23;;;4.70;99.90;;;4.72;73.49;100039.47;5072751;28;20115;-78
2020/12/06 03:23:45;;;;;;;20.37;17.40;;;4.70;99.90;;;4.78;73.45;100036.88;5072630;28;20052;-77
2020/12/06 03:26:12;;;;;;;24.13;18.67;;;4.70;99.90;;;4.77;72.88;100036.88;5072463;28;20128;-78
2020/12/06 03:28:39;;;;;;;21.77;18.20;;;4.70;99.90;;;4.78;73.24;100038.63;5071506;28;20044;-78
2020/12/06 03:31:08;;;;;;;20.30;17.53;;;4.80;99.90;;;4.68;72.79;100029.84;5072660;28;20035;-78
2020/12/06 03:33:36;;;;;;;21.37;18.43;;;4.80;99.90;;;4.68;73.34;100034.19;5071316;28;20057;-78
2020/12/06 03:36:04;;;;;;;21.23;18.80;;;4.70;99.90;;;4.77;73.24;100052.56;5072593;28;20195;-78
2020/12/06 03:38:32;;;;;;;22.50;19.50;;;4.70;99.90;;;4.64;73.40;100030.69;5072530;28;20048;-77
2020/12/06 03:40:59;;;;;;;21.17;18.47;;;4.70;99.90;;;4.76;73.31;100051.72;5087962;28;20565;-77
2020/12/06 03:43:26;;;;;;;21.97;17.47;;;4.80;99.90;;;4.76;73.28;100050.84;5072490;28;20056;-77
2020/12/06 03:45:54;;;;;;;22.93;18.73;;;4.70;99.90;;;4.75;73.28;100051.69;5072530;28;20392;-77
2020/12/06 03:48:22;;;;;;;24.00;17.97;;;4.70;99.90;;;4.47;72.97;99991.31;5072845;28;20048;-78
2020/12/06 03:50:50;;;;;;;23.30;19.50;;;4.70;99.90;;;4.68;72.90;100032.47;5075086;28;20040;-78
2020/12/06 03:53:17;;;;;;;22.67;19.17;;;4.70;99.90;;;4.70;73.42;100046.44;5076241;28;20102;-77
2020/12/06 03:55:44;;;;;;;23.60;19.27;;;4.60;99.90;;;4.73;73.41;100043.84;5076177;28;20051;-78
2020/12/06 03:58:12;;;;;;;23.50;19.40;;;4.70;99.90;;;4.70;73.20;100045.56;5076114;28;20040;-78
2020/12/06 04:00:39;;;;;;;24.40;18.77;;;4.70;99.90;;;4.66;73.70;100046.41;5076164;28;20072;-77
2020/12/06 04:03:07;;;;;;;24.23;19.70;;;4.60;99.90;;;4.65;73.96;100042.03;5076361;28;20048;-78
2020/12/06 04:05:35;;;;;;;24.33;20.30;;;4.70;99.90;;;4.65;73.47;100035.06;5075783;28;20050;-77
2020/12/06 04:08:02;;;;;;;23.40;19.57;;;4.60;99.90;;;4.70;73.36;100041.22;5075938;28;20056;-78
2020/12/06 04:10:30;;;;;;;24.60;20.27;;;4.70;99.90;;;4.63;73.57;100057.72;5075824;28;20080;-78
2020/12/06 04:12:57;;;;;;;25.30;20.13;;;4.70;99.90;;;4.63;73.47;100023.69;5076090;28;20052;-78
2020/12/06 04:15:25;;;;;;;24.37;21.07;;;4.70;99.90;;;4.54;73.77;100011.44;5075828;28;20080;-78
2020/12/06 04:17:52;;;;;;;23.87;19.80;;;4.70;99.90;;;4.72;73.78;100049.97;5075247;28;20494;-78
2020/12/06 04:20:20;;;;;;;23.90;20.07;;;4.70;99.90;;;4.44;73.76;99999.16;5075779;28;20116;-78
2020/12/06 04:22:48;;;;;;;24.07;20.17;;;4.70;99.90;;;4.74;73.70;100042.09;5075438;28;20052;-78
2020/12/06 04:25:15;;;;;;;22.23;19.80;;;4.70;99.90;;;4.71;73.70;100048.19;5075703;28;20116;-77
2020/12/06 04:27:43;;;;;;;25.03;20.40;;;4.70;99.90;;;4.70;73.83;100051.69;5075667;28;20045;-78
2020/12/06 04:30:10;;;;;;;24.17;20.80;;;4.70;99.90;;;4.45;73.88;100013.13;5075623;28;20075;-78
2020/12/06 04:32:38;;;;;;;25.13;21.03;;;4.70;99.90;;;4.72;73.46;100059.53;5075319;28;20041;-78
2020/12/06 04:35:06;;;;;;;27.97;21.10;;;4.70;99.90;;;4.74;73.75;100063.06;5075260;28;20523;-77
2020/12/06 04:37:34;;;;;;;26.40;20.87;;;4.60;99.90;;;4.74;73.33;100069.16;5075463;28;20048;-78
2020/12/06 04:40:03;;;;;;;27.33;20.50;;;4.70;99.90;;;4.73;73.15;100069.13;5075459;28;20064;-78
2020/12/06 04:42:31;;;;;;;25.23;21.10;;;4.70;99.90;;;4.70;73.43;100071.75;5074062;28;20122;-77
2020/12/06 04:45:00;;;;;;;25.87;21.30;;;4.70;99.90;;;4.70;73.61;100063.91;5075261;28;20409;-78
2020/12/06 04:47:48;;;;;;;26.93;21.00;;;4.70;99.90;;;4.64;73.74;100063.84;5074221;28;20544;-78
2020/12/06 04:50:27;;;;;;;31.33;21.30;;;4.60;99.90;;;4.63;73.79;100064.75;5075197;28;20051;-78
2020/12/06 04:53:00;;;;;;;25.37;21.10;;;4.60;99.90;;;4.50;73.63;100059.41;5075270;28;20044;-78
2020/12/06 04:55:30;;;;;;;26.63;21.37;;;4.60;99.90;;;4.55;73.78;100057.69;5075414;28;20045;-78
2020/12/06 04:58:00;;;;;;;26.63;21.20;;;4.50;99.90;;;4.59;73.85;100056.84;5075286;28;20474;-78
2020/12/06 05:00:34;;;;;;;25.35;21.00;;;4.50;99.90;;;4.41;74.08;100037.53;5074637;28;20191;-78
2020/12/06 05:03:07;;;;;;;24.67;20.30;;;4.50;99.90;;;4.58;74.20;100060.34;5074792;28;20045;-77
2020/12/06 05:05:37;;;;;;;29.17;22.37;;;4.50;99.90;;;4.51;74.14;100052.41;5074769;28;20370;-78
2020/12/06 05:08:08;;;;;;;26.33;21.17;;;4.50;99.90;;;4.33;74.56;100054.94;5075202;28;20305;-78
2020/12/06 05:10:38;;;;;;;;;;;4.50;99.90;;;4.28;74.22;100010.38;5075104;28;20090;-78
2020/12/06 05:13:07;;;;;;;29.25;22.70;;;4.60;99.90;;;4.42;74.31;100049.75;5074627;28;19927;-78
2020/12/06 05:15:35;;;;;;;27.53;21.63;;;4.50;99.90;;;4.55;74.50;100075.13;5074513;28;20036;-78
2020/12/06 05:18:03;;;;;;;25.20;21.50;;;4.50;99.90;;;4.41;74.36;100043.63;5074187;28;20055;-77
2020/12/06 05:20:31;;;;;;;28.37;21.93;;;4.50;99.90;;;4.35;74.29;100022.66;5074366;28;20079;-78
2020/12/06 05:22:59;;;;;;;29.40;21.53;;;4.60;99.90;;;4.62;74.37;100062.97;5074846;28;20052;-78
2020/12/06 05:25:27;;;;;;;29.10;22.43;;;4.60;99.90;;;4.60;74.52;100055.13;5074298;28;20115;-77
2020/12/06 05:27:55;;;;;;;30.03;23.10;;;4.60;99.90;;;4.53;74.29;100046.34;5074410;28;20090;-77
2020/12/06 05:30:23;;;;;;;31.30;22.20;;;4.60;99.90;;;4.49;74.43;100049.78;5074727;28;20037;-78
2020/12/06 05:32:50;;;;;;;25.07;21.37;;;4.60;99.90;;;4.59;74.60;100069.94;5074428;28;20052;-77
2020/12/06 05:35:20;;;;;;;29.93;23.03;;;4.60;99.90;;;4.66;74.48;100072.59;5074234;28;20529;-78
2020/12/06 05:37:49;;;;;;;27.93;23.07;;;4.60;99.90;;;4.74;74.24;100068.28;5073828;28;20502;-77
2020/12/06 05:40:17;;;;;;;27.57;22.33;;;4.70;99.90;;;4.71;74.44;100069.13;5073877;28;20044;-78
2020/12/06 05:42:46;;;;;;;26.47;21.57;;;4.70;99.90;;;4.71;74.39;100063.91;5073909;28;20045;-78
2020/12/06 05:45:18;;;;;;;30.10;23.40;;;4.70;99.90;;;4.74;74.41;100063.94;5074208;28;20068;-78
2020/12/06 05:47:47;;;;;;;27.87;22.87;;;4.70;99.90;;;4.69;74.64;100065.63;5074157;28;20052;-78
2020/12/06 05:50:14;;;;;;;27.30;21.97;;;4.70;99.90;;;3.91;74.57;99936.88;5074093;28;20112;-78
2020/12/06 05:52:41;;;;;;;30.47;23.30;;;4.70;99.90;;;4.52;74.42;100033.25;5073802;28;20048;-77
2020/12/06 05:55:09;;;;;;;28.23;23.00;;;4.70;99.90;;;4.59;74.44;100042.88;5073957;28;20044;-78
2020/12/06 05:57:45;;;;;;;29.90;24.10;;;4.70;99.90;;;4.60;74.52;100062.97;5074073;28;20071;-78
2020/12/06 06:00:15;;;;;;;29.83;23.87;;;4.70;99.90;;;4.73;74.80;100070.03;5089615;28;20144;-78
2020/12/06 06:02:44;;;;;;;29.00;23.43;;;4.70;99.90;;;4.77;74.95;100074.41;5073887;28;20113;-77
2020/12/06 06:05:17;;;;;;;28.55;23.85;;;4.70;99.90;;;4.78;74.56;100076.16;5074341;28;20094;-78
2020/12/06 06:07:48;;;;;;;31.10;24.53;;;4.70;99.90;;;4.63;74.42;100062.13;5073615;28;20078;-78
2020/12/06 06:10:26;;;;;;;33.80;24.50;;;4.70;99.90;;;4.61;74.91;100080.41;5073315;28;20044;-78
2020/12/06 06:13:02;;;;;;;30.00;22.67;;;4.70;99.90;;;4.72;74.84;100096.22;5072863;28;20086;-78
2020/12/06 06:15:31;;;;;;;30.20;23.57;;;4.70;99.90;;;4.74;74.72;100092.75;5073453;28;20452;-78
2020/12/06 06:18:01;;;;;;;32.07;23.90;;;4.70;99.90;;;4.80;74.57;100081.44;5073516;28;20072;-78
2020/12/06 06:20:30;;;;;;;28.83;22.23;;;4.70;99.90;;;4.63;74.53;100086.53;5073687;28;20083;-78
2020/12/06 06:23:00;;;;;;;30.23;23.83;;;4.80;99.90;;;4.77;74.64;100068.28;5072354;28;20048;-78
2020/12/06 06:25:28;;;;;;;30.85;23.85;;;4.80;99.90;;;4.79;74.31;100071.78;5073209;28;20045;-78
2020/12/06 06:27:57;;;;;;;33.23;24.43;;;4.80;99.90;;;4.77;74.67;100078.78;5088833;28;20091;-79
2020/12/06 06:30:25;;;;;;;30.80;23.33;;;4.70;99.90;;;4.85;74.68;100066.59;5073086;28;20033;-79
2020/12/06 06:32:53;;;;;;;30.50;24.30;;;4.80;99.90;;;4.77;74.30;100060.44;5073002;28;20119;-79
2020/12/06 06:35:20;;;;;;;31.13;24.73;;;4.80;99.90;;;4.77;74.64;100068.28;5071958;28;20053;-78
2020/12/06 06:37:48;;;;;;;31.33;24.40;;;4.80;99.90;;;4.76;74.74;100061.31;5071892;28;20056;-79
2020/12/06 06:40:16;;;;;;;30.30;23.47;;;4.70;99.90;;;4.70;74.89;100063.91;5088728;28;20127;-79
2020/12/06 06:42:43;;;;;;;33.93;24.93;;;4.70;99.90;;;4.67;74.52;100066.47;5072880;28;20110;-78
2020/12/06 06:45:12;;;;;;;31.77;24.33;;;4.70;99.90;;;4.65;74.33;100062.97;5073145;28;20082;-78
2020/12/06 06:47:41;;;;;;;31.20;25.00;;;4.60;99.90;;;4.61;74.87;100067.31;5072791;28;20106;-78
2020/12/06 06:50:11;;;;;;;30.83;24.43;;;4.60;99.90;;;4.67;74.53;100063.84;5073061;28;20052;-78
2020/12/06 06:52:42;;;;;;;30.35;24.55;;;4.70;99.90;;;4.63;74.92;100062.97;5073139;28;20052;-78
2020/12/06 06:55:10;;;;;;;32.37;24.70;;;4.60;99.90;;;4.39;75.05;100021.78;5071784;28;20498;-78
2020/12/06 06:57:41;;;;;;;30.70;25.60;;;4.70;99.90;;;4.65;74.60;100081.31;5073008;28;20075;-78
2020/12/06 07:00:09;;;;;;;33.80;24.90;;;4.70;99.90;;;4.54;74.61;100076.00;5072726;28;20044;-78
2020/12/06 07:02:38;;;;;;;31.77;25.10;;;4.60;99.90;;;4.52;74.79;100065.53;5073173;28;20132;-78
2020/12/06 07:05:07;;;;;;;33.47;26.00;;;4.60;99.90;;;4.29;74.69;100038.31;5073222;28;20545;-78
2020/12/06 07:07:44;;;;;;;32.60;25.40;;;4.60;99.90;;;4.42;74.79;100070.69;5072828;28;20072;-78
2020/12/06 07:10:15;;;;;;;35.33;27.23;;;4.50;99.90;;;4.50;75.18;100082.97;5072553;28;20037;-78
2020/12/06 07:12:49;;;;;;;32.43;26.03;;;4.60;99.90;;;4.23;75.25;100080.16;5071530;28;20052;-78
2020/12/06 07:15:19;;;;;;;35.73;26.43;;;4.40;99.90;;;4.25;75.33;100078.44;5072649;28;20048;-79
2020/12/06 07:17:48;;;;;;;32.13;25.40;;;4.40;99.90;;;4.34;75.56;100088.97;5072649;28;20053;-78
2020/12/06 07:20:17;;;;;;;33.57;26.43;;;4.40;99.90;;;2.64;75.23;99766.88;5072468;28;20036;-78
2020/12/06 07:22:47;;;;;;;33.73;26.07;;;4.40;99.90;;;4.37;75.39;100048.84;5073799;28;20032;-78
2020/12/06 07:25:16;;;;;;;34.57;25.07;;;4.50;99.90;;;2.86;75.18;99890.66;5076867;28;20289;-78
2020/12/06 07:27:44;;;;;;;31.53;26.80;;;4.50;99.90;;;4.51;75.60;100083.81;5076567;28;20595;-78
2020/12/06 07:30:14;;;;;;;34.37;26.77;;;4.50;99.90;;;4.51;75.64;100086.44;5076661;28;20117;-78
2020/12/06 07:32:41;;;;;;;32.03;26.13;;;4.50;99.90;;;4.37;75.73;100062.81;5076766;28;20051;-79
2020/12/06 07:35:11;;;;;;;33.00;26.67;;;4.50;99.90;;;4.27;75.22;100044.41;5076653;28;20119;-78
2020/12/06 07:37:39;;;;;;;36.05;25.70;;;4.50;99.90;;;4.38;75.49;100095.97;5076275;28;20456;-78
2020/12/06 07:40:10;;;;;;;31.37;24.90;;;4.50;99.90;;;4.49;75.41;100088.22;5076308;28;20551;-78
2020/12/06 07:42:39;;;;;;;33.10;25.70;;;4.50;99.90;;;4.61;75.19;100092.66;5076325;28;20045;-79
2020/12/06 07:45:07;;;;;;;34.43;26.57;;;4.50;99.90;;;4.59;75.04;100090.88;5076376;28;20052;-79
2020/12/06 07:47:36;;;;;;;33.33;25.97;;;4.60;99.90;;;4.49;74.82;100080.34;5092169;28;20410;-79
2020/12/06 07:50:05;;;;;;;33.50;25.80;;;4.50;99.90;;;4.46;75.14;100101.25;5076549;28;20101;-79
2020/12/06 07:52:34;;;;;;;36.07;26.47;;;4.50;99.90;;;4.42;75.34;100065.44;5076040;28;20040;-78
2020/12/06 07:55:04;;;;;;;32.27;24.40;;;4.50;99.90;;;4.63;74.93;100089.16;5076230;28;20131;-78
2020/12/06 07:57:46;;;;;;;31.38;26.75;;;4.60;99.90;;;4.29;74.87;100030.47;5076252;28;20044;-79
2020/12/06 08:00:17;;;;;;;32.57;25.57;;;4.60;99.90;;;4.76;74.52;100104.09;5076030;28;20103;-78
2020/12/06 08:02:48;;;;;;;31.77;26.00;;;4.70;99.90;;;4.82;74.71;100100.66;5076439;28;20047;-78
2020/12/06 08:05:20;;;;;;;32.87;26.17;;;4.80;99.90;;;4.84;74.53;100097.16;5074960;28;20056;-78
2020/12/06 08:07:57;;;;;;;33.23;26.37;;;4.80;99.90;;;4.75;73.90;100078.78;5076145;28;20098;-78
2020/12/06 08:10:30;;;;;;;29.80;24.60;;;4.80;99.90;;;4.81;73.87;100064.81;5076263;28;20040;-78
2020/12/06 08:12:59;;;;;;;30.67;23.97;;;4.90;99.90;;;4.93;74.27;100080.63;5075823;28;20043;-78
2020/12/06 08:15:29;;;;;;;31.00;25.33;;;4.90;99.90;;;4.98;73.98;100087.63;5075611;28;20072;-78
2020/12/06 08:17:57;;;;;;;33.53;25.50;;;4.90;99.90;;;4.81;73.96;100043.88;5075812;28;20056;-78
2020/12/06 08:20:27;;;;;;;34.67;26.70;;;4.90;99.90;;;5.06;74.18;100082.44;5076124;28;20058;-78
2020/12/06 08:22:56;;;;;;;32.50;25.65;;;5.00;99.90;;;4.90;74.33;100047.41;5075796;28;20040;-79
2020/12/06 08:25:28;;;;;;;33.92;26.65;;;5.00;99.90;;;5.00;74.00;100064.94;5075824;28;20048;-79
2020/12/06 08:27:59;;;;;;;34.83;26.15;;;5.00;99.90;;;5.16;73.81;100073.75;5075478;28;20041;-78
2020/12/06 08:30:28;;;;;;;32.97;26.20;;;5.10;99.90;;;5.20;73.80;100072.88;5075586;28;20052;-78
2020/12/06 08:32:58;;;;;;;29.30;25.15;;;5.10;99.90;;;5.18;74.00;100058.91;5075294;28;20044;-79
2020/12/06 08:35:39;;;;;;;33.25;27.35;;;5.20;99.90;;;5.05;73.87;100072.81;5074623;28;20063;-78
2020/12/06 08:38:18;;;;;;;32.00;25.37;;;5.20;99.90;;;5.44;73.62;100092.19;5075182;28;20115;-79
2020/12/06 08:41:03;;;;;;;32.03;25.47;;;5.30;99.90;;;5.49;73.54;100102.72;5075207;28;20037;-79
2020/12/06 08:43:47;;;;;;;29.40;24.13;;;5.40;99.90;;;5.27;73.39;100059.81;5075375;28;20452;-78
2020/12/06 08:46:16;;;;;;;30.53;25.50;;;5.50;99.90;;;5.56;73.55;100096.63;5074874;28;20047;-78
2020/12/06 08:48:45;;;;;;;28.13;24.20;;;5.50;99.90;;;5.64;73.45;100089.66;5074573;28;20501;-77
2020/12/06 08:51:31;;;;;;;30.27;24.03;;;5.60;99.90;;;5.73;73.02;100099.31;5075021;28;20052;-79
2020/12/06 08:54:00;;;;;;;31.97;25.47;;;5.60;99.90;;;5.58;73.22;100062.50;5074758;28;20044;-79
2020/12/06 08:56:30;;;;;;;32.13;25.73;;;5.70;99.90;;;5.84;73.06;100097.59;5074453;28;20463;-79
2020/12/06 08:59:08;;;;;;;32.72;25.45;;;5.80;99.90;;;5.94;72.74;100100.22;5074781;28;20032;-80
2020/12/06 09:01:49;;;;;;;31.10;25.40;;;5.90;99.90;;;5.96;72.94;100108.97;5073862;28;20076;-79
2020/12/06 09:04:18;;;;;;;31.53;24.70;;;5.90;99.90;;;6.01;72.73;100090.63;5075370;28;20094;-80
2020/12/06 09:06:47;;;;;;;33.40;25.63;;;6.00;99.90;;;6.08;72.45;100088.00;5073645;28;20052;-79
2020/12/06 09:09:16;;;;;;;31.40;25.50;;;6.00;99.90;;;5.88;72.65;100041.63;5073598;28;20052;-79
2020/12/06 09:11:44;;;;;;;29.90;24.77;;;6.00;99.90;;;6.11;72.36;100066.13;5074951;28;20122;-80
2020/12/06 09:14:12;;;;;;;33.73;25.73;;;6.10;99.90;;;6.25;72.15;100086.25;5075045;28;20048;-86
2020/12/06 09:16:40;;;;;;;33.93;26.67;;;6.20;99.90;;;6.19;72.41;100062.63;5074687;28;20053;-77
2020/12/06 09:19:08;;;;;;;31.17;25.73;;;6.20;99.90;;;6.27;72.09;100067.91;5074602;28;20040;-78
2020/12/06 09:21:35;;;;;;;31.57;25.13;;;6.30;99.90;;;6.31;71.87;100081.00;5074624;28;20063;-78
2020/12/06 09:24:03;;;;;;;31.23;25.53;;;6.30;99.90;;;6.36;71.76;100076.66;5074229;28;20043;-76
2020/12/06 09:26:30;;;;;;;29.70;24.00;;;6.30;99.90;;;6.36;71.62;100063.53;5074779;28;20063;-75
2020/12/06 09:28:58;;;;;;;30.63;24.70;;;6.30;99.90;;;6.26;71.74;100039.88;5074233;28;20044;-76
2020/12/06 09:31:26;;;;;;;31.53;24.87;;;6.40;99.90;;;6.27;71.51;100052.16;5074313;28;20052;-76
2020/12/06 09:33:54;;;;;;;31.97;25.20;;;6.40;99.90;;;6.44;71.56;100071.41;5074292;28;20052;-72
2020/12/06 09:36:22;;;;;;;30.67;24.53;;;6.40;99.90;;;6.34;71.18;100052.16;5074009;28;20135;-73
2020/12/06 09:38:50;;;;;;;27.67;23.53;;;6.40;99.90;;;6.46;71.22;100074.00;5073872;28;20032;-78
2020/12/06 09:41:17;;;;;;;28.80;23.17;;;6.40;99.90;;;6.53;71.31;100078.38;5073783;28;20053;-74
2020/12/06 09:43:46;;;;;;;29.33;24.10;;;6.40;99.90;;;6.59;71.16;100081.00;5074174;28;20040;-74
2020/12/06 09:46:15;;;;;;;28.30;23.30;;;6.50;99.90;;;6.49;71.13;100072.25;5074165;28;20068;-73
2020/12/06 09:48:43;;;;;;;28.27;23.37;;;6.50;99.90;;;6.60;71.21;100070.47;5074236;28;20050;-75
2020/12/06 09:51:11;;;;;;;28.73;23.60;;;6.50;99.90;;;6.05;71.06;99975.16;5073613;28;20122;-70
2020/12/06 09:53:38;;;;;;;30.33;24.87;;;6.50;99.90;;;6.70;70.93;100073.97;5073589;28;20048;-73
2020/12/06 09:56:06;;;;;;;29.40;25.03;;;6.60;99.90;;;6.66;70.93;100072.25;5073573;28;20048;-70
2020/12/06 09:58:34;;;;;;;28.83;24.13;;;6.60;99.90;;;6.62;70.91;100081.00;5073233;28;20064;-71
2020/12/06 10:01:02;;;;;;;30.57;24.63;;;6.60;99.90;;;6.66;70.90;100078.34;5073533;28;20051;-69
2020/12/06 10:03:29;;;;;;;30.83;24.33;;;6.60;99.90;;;6.68;70.88;100075.75;5073282;28;20452;-72
2020/12/06 10:05:58;;;;;;;30.70;25.33;;;6.60;99.90;;;6.65;70.90;100074.00;5073129;28;20127;-73
2020/12/06 10:08:27;;;;;;;30.88;24.00;;;6.70;99.90;;;6.47;70.89;100055.63;5073943;28;20143;-72
2020/12/06 10:10:54;;;;;;;31.47;24.97;;;6.60;99.90;;;6.62;71.02;100078.38;5073058;28;20470;-73
2020/12/06 10:13:22;;;;;;;31.03;24.63;;;6.60;99.90;;;4.68;71.13;99747.03;5073136;28;20043;-72
2020/12/06 10:15:50;;;;;;;30.27;24.27;;;6.60;99.90;;;6.66;71.38;100080.13;5073293;28;20127;-72
2020/12/06 10:18:17;;;;;;;30.80;24.67;;;6.60;99.90;;;6.61;71.14;100085.38;5073493;28;20094;-73
2020/12/06 10:20:47;;;;;;;31.83;25.57;;;6.60;99.90;;;6.61;71.48;100074.88;5088763;28;20437;-74